createdAt,value
2022-08-25T00:01:21.701Z,16.99
2022-08-25T00:05:29.077Z,16.92
2022-08-25T00:09:38.624Z,16.87
2022-08-25T00:13:44.441Z,16.81
2022-08-25T00:17:52.690Z,16.79
2022-08-25T00:21:55.297Z,16.77
2022-08-25T00:25:56.754Z,16.72
2022-08-25T00:29:58.362Z,16.70
2022-08-25T00:34:00.801Z,16.60
2022-08-25T00:38:02.420Z,16.56
2022-08-25T00:42:04.986Z,16.53
2022-08-25T00:46:18.120Z,16.49
2022-08-25T00:50:20.148Z,16.45
2022-08-25T00:54:28.642Z,16.42
2022-08-25T00:58:32.128Z,16.37
2022-08-25T01:02:33.660Z,16.34
2022-08-25T01:06:38.442Z,16.27
2022-08-25T01:10:43.537Z,16.19
2022-08-25T01:14:46.611Z,16.14
2022-08-25T01:18:56.817Z,16.12
2022-08-25T01:22:59.837Z,16.07
2022-08-25T01:27:01.621Z,16.05
2022-08-25T01:31:03.659Z,15.99
2022-08-25T01:35:06.025Z,15.93
2022-08-25T01:39:07.382Z,15.93
2022-08-25T01:43:15.089Z,15.92
2022-08-25T01:47:16.769Z,15.86
2022-08-25T01:51:21.491Z,15.80
2022-08-25T01:55:23.476Z,15.76
2022-08-25T01:59:26.999Z,15.68
2022-08-25T02:03:29.764Z,15.65
2022-08-25T02:07:34.122Z,15.58
2022-08-25T02:11:37.901Z,15.54
2022-08-25T02:15:49.869Z,15.54
2022-08-25T02:19:51.709Z,15.52
2022-08-25T02:24:00.717Z,15.49
2022-08-25T02:28:02.341Z,15.41
2022-08-25T02:32:04.684Z,15.34
2022-08-25T02:36:07.691Z,15.32
2022-08-25T02:40:09.992Z,15.23
2022-08-25T02:44:17.728Z,15.15
2022-08-25T02:48:20.833Z,15.11
2022-08-25T02:52:22.277Z,15.12
2022-08-25T02:56:31.662Z,15.13
2022-08-25T03:00:33.231Z,15.10
2022-08-25T03:04:35.365Z,15.09
2022-08-25T03:08:38.250Z,15.05
2022-08-25T03:12:41.759Z,15.01
2022-08-25T03:16:46.425Z,14.99
2022-08-25T03:20:48.056Z,15.00
2022-08-25T03:24:49.513Z,14.95
2022-08-25T03:28:51.218Z,14.90
2022-08-25T03:32:59.710Z,14.89
2022-08-25T03:37:01.302Z,14.87
2022-08-25T03:41:10.570Z,14.82
2022-08-25T03:45:16.383Z,14.82
2022-08-25T03:49:22.873Z,14.75
2022-08-25T03:53:24.338Z,14.71
2022-08-25T03:57:25.762Z,14.65
2022-08-25T04:01:28.049Z,14.59
2022-08-25T04:05:29.616Z,14.56
2022-08-25T04:09:36.889Z,14.55
2022-08-25T04:13:39.181Z,14.51
2022-08-25T04:17:41.079Z,14.48
2022-08-25T04:21:49.912Z,14.42
2022-08-25T04:25:51.500Z,14.29
2022-08-25T04:29:53.079Z,14.23
2022-08-25T04:33:54.690Z,14.25
2022-08-25T04:37:56.746Z,14.25
2022-08-25T04:42:00.509Z,14.23
2022-08-25T04:46:12.323Z,14.21
2022-08-25T04:50:13.733Z,14.21
2022-08-25T04:54:23.149Z,14.24
2022-08-25T04:58:24.569Z,14.26
2022-08-25T05:02:25.990Z,14.28
2022-08-25T05:06:28.838Z,14.30
2022-08-25T05:10:37.093Z,14.30
2022-08-25T05:14:38.885Z,14.36
2022-08-25T05:18:40.673Z,14.39
2022-08-25T05:22:46.316Z,14.47
2022-08-25T05:26:47.902Z,14.54
2022-08-25T05:30:56.696Z,14.68
2022-08-25T05:34:58.181Z,14.85
2022-08-25T05:39:00.140Z,15.05
2022-08-25T05:43:01.752Z,15.23
2022-08-25T05:47:03.376Z,15.46
2022-08-25T05:51:08.146Z,15.81
2022-08-25T05:55:10.234Z,17.12
2022-08-25T05:59:11.841Z,17.97
2022-08-25T06:03:19.839Z,18.61
2022-08-25T06:07:21.397Z,19.17
2022-08-25T06:11:22.833Z,19.71
2022-08-25T06:15:25.545Z,20.12
2022-08-25T06:19:27.547Z,20.49
2022-08-25T06:23:48.749Z,21.00
2022-08-25T06:27:50.788Z,21.47
2022-08-25T06:31:59.004Z,22.01
2022-08-25T06:36:01.111Z,22.62
2022-08-25T06:40:06.295Z,23.10
2022-08-25T06:44:08.041Z,23.45
2022-08-25T06:48:16.765Z,23.85
2022-08-25T06:52:18.254Z,24.16
2022-08-25T06:56:21.722Z,24.47
2022-08-25T07:00:31.894Z,24.72
2022-08-25T07:04:34.832Z,24.94
2022-08-25T07:08:37.121Z,25.15
2022-08-25T07:12:39.731Z,25.37
2022-08-25T07:16:47.217Z,25.65
2022-08-25T07:20:52.085Z,25.96
2022-08-25T07:24:54.143Z,26.22
2022-08-25T07:28:57.005Z,26.43
2022-08-25T07:32:58.602Z,26.64
2022-08-25T07:37:00.231Z,26.85
2022-08-25T07:41:09.825Z,26.95
2022-08-25T07:45:12.126Z,27.19
2022-08-25T07:49:17.102Z,27.38
2022-08-25T07:53:18.856Z,27.60
2022-08-25T07:57:29.013Z,27.77
2022-08-25T08:01:30.772Z,27.96
2022-08-25T08:05:33.421Z,28.19
2022-08-25T08:09:35.045Z,28.41
2022-08-25T08:13:41.139Z,28.59
2022-08-25T08:17:42.990Z,28.87
2022-08-25T08:21:46.685Z,29.10
2022-08-25T08:25:48.169Z,29.25
2022-08-25T08:29:50.109Z,29.46
2022-08-25T08:33:51.956Z,29.71
2022-08-25T08:37:54.014Z,29.87
2022-08-25T08:42:16.876Z,29.97
2022-08-25T08:46:21.166Z,30.11
2022-08-25T08:50:47.833Z,30.21
2022-08-25T08:54:56.974Z,30.42
2022-08-25T08:59:16.859Z,30.58
2022-08-25T09:03:34.638Z,30.66
2022-08-25T09:07:54.832Z,30.57
2022-08-25T09:12:11.222Z,30.63
2022-08-25T09:16:55.372Z,30.57
2022-08-25T09:21:14.782Z,30.70
2022-08-25T09:25:52.272Z,30.81
2022-08-25T09:30:12.038Z,31.02
2022-08-25T09:34:20.281Z,31.07
2022-08-25T09:38:29.834Z,31.13
2022-08-25T09:42:57.814Z,31.30
2022-08-25T09:47:02.625Z,31.35
2022-08-25T09:51:23.275Z,31.42
2022-08-25T09:55:30.345Z,31.43
2022-08-25T09:59:57.405Z,31.38
2022-08-25T10:04:03.558Z,31.39
2022-08-25T10:08:24.876Z,31.53
2022-08-25T10:12:42.970Z,31.69
2022-08-25T10:16:47.262Z,31.81
2022-08-25T10:21:07.524Z,31.84
2022-08-25T10:25:14.508Z,31.92
2022-08-25T10:29:34.592Z,31.90
2022-08-25T10:34:04.388Z,31.89
2022-08-25T10:38:35.282Z,31.94
2022-08-25T10:42:52.264Z,31.83
2022-08-25T10:47:22.220Z,32.01
2022-08-25T10:51:33.613Z,31.92
2022-08-25T10:56:01.358Z,31.91
2022-08-25T11:00:31.689Z,32.14
2022-08-25T11:04:47.175Z,32.26
2022-08-25T11:08:57.602Z,32.23
2022-08-25T11:13:05.081Z,32.36
2022-08-25T11:17:15.985Z,32.33
2022-08-25T11:21:26.075Z,32.23
2022-08-25T11:25:36.761Z,32.12
2022-08-25T11:29:47.930Z,32.31
2022-08-25T11:33:50.952Z,32.61
2022-08-25T11:38:10.774Z,32.67
2022-08-25T11:42:31.923Z,32.96
2022-08-25T11:46:45.454Z,33.11
2022-08-25T11:51:04.996Z,33.22
2022-08-25T11:55:17.066Z,33.23
2022-08-25T11:59:54.820Z,33.15
2022-08-25T12:04:29.812Z,33.16
2022-08-25T12:08:51.274Z,33.26
2022-08-25T12:12:59.401Z,33.11
2022-08-25T12:17:20.717Z,33.14
2022-08-25T12:21:30.699Z,33.14
2022-08-25T12:25:39.265Z,33.28
2022-08-25T12:29:58.581Z,33.37
2022-08-25T12:34:31.355Z,33.24
2022-08-25T12:38:50.908Z,33.21
2022-08-25T12:43:02.197Z,33.31
2022-08-25T12:47:10.988Z,33.26
2022-08-25T12:51:18.485Z,33.35
2022-08-25T12:55:21.813Z,33.44
2022-08-25T12:59:35.028Z,33.49
2022-08-25T13:03:58.244Z,33.39
2022-08-25T13:08:26.958Z,33.46
2022-08-25T13:12:46.778Z,33.53
2022-08-25T13:17:00.485Z,33.57
2022-08-25T13:21:16.325Z,33.62
2022-08-25T13:25:23.134Z,33.63
2022-08-25T13:29:37.413Z,33.55
2022-08-25T13:33:57.976Z,33.57
2022-08-25T13:38:19.546Z,33.58
2022-08-25T13:42:29.008Z,33.72
2022-08-25T13:46:31.544Z,33.87
2022-08-25T13:50:43.013Z,33.88
2022-08-25T13:54:49.468Z,33.83
2022-08-25T13:58:58.254Z,33.87
2022-08-25T14:03:02.144Z,33.83
2022-08-25T14:07:21.032Z,33.91
2022-08-25T14:11:46.711Z,33.99
2022-08-25T14:15:56.164Z,34.09
2022-08-25T14:19:58.510Z,34.00
2022-08-25T14:24:07.119Z,33.93
2022-08-25T14:28:17.013Z,33.91
2022-08-25T14:32:18.821Z,33.89
2022-08-25T14:36:20.976Z,33.81
2022-08-25T14:40:22.606Z,33.85
2022-08-25T14:44:24.409Z,33.98
2022-08-25T14:48:39.196Z,34.06
2022-08-25T14:52:42.041Z,33.89
2022-08-25T14:56:45.700Z,33.94
2022-08-25T15:00:48.207Z,33.92
2022-08-25T15:05:00.070Z,33.98
2022-08-25T15:09:07.940Z,34.14
2022-08-25T15:13:16.222Z,34.18
2022-08-25T15:17:18.405Z,34.13
2022-08-25T15:21:20.178Z,34.07
2022-08-25T15:25:22.721Z,34.21
2022-08-25T15:29:29.792Z,34.30
2022-08-25T15:33:31.281Z,34.39
2022-08-25T15:37:32.901Z,34.33
2022-08-25T15:41:43.109Z,34.28
2022-08-25T15:45:46.330Z,34.15
2022-08-25T15:49:48.237Z,34.29
2022-08-25T15:53:50.320Z,34.27
2022-08-25T15:57:51.972Z,34.39
2022-08-25T16:01:54.161Z,34.38
2022-08-25T16:05:56.149Z,34.48
2022-08-25T16:09:58.525Z,34.53
2022-08-25T16:14:07.211Z,34.69
2022-08-25T16:18:08.992Z,34.65
2022-08-25T16:22:10.882Z,34.58
2022-08-25T16:26:13.057Z,34.51
2022-08-25T16:30:17.456Z,34.27
2022-08-25T16:34:19.265Z,33.83
2022-08-25T16:38:21.694Z,33.34
2022-08-25T16:42:23.198Z,32.83
2022-08-25T16:46:24.759Z,32.38
2022-08-25T16:50:30.441Z,32.01
2022-08-25T16:54:54.529Z,31.67
2022-08-25T16:58:59.325Z,31.40
2022-08-25T17:03:04.770Z,31.18
2022-08-25T17:07:06.435Z,30.94
2022-08-25T17:11:15.868Z,30.74
2022-08-25T17:15:22.436Z,30.53
2022-08-25T17:19:25.838Z,30.36
2022-08-25T17:23:34.180Z,30.06
2022-08-25T17:27:35.874Z,29.77
2022-08-25T17:31:39.757Z,29.54
2022-08-25T17:35:45.348Z,29.29
2022-08-25T17:39:47.602Z,29.09
2022-08-25T17:43:52.124Z,28.86
2022-08-25T17:48:00.300Z,28.71
2022-08-25T17:52:02.430Z,28.52
2022-08-25T17:56:15.436Z,28.21
2022-08-25T18:00:19.178Z,27.82
2022-08-25T18:04:22.587Z,27.53
2022-08-25T18:08:35.003Z,27.26
2022-08-25T18:12:38.415Z,27.00
2022-08-25T18:16:40.876Z,26.68
2022-08-25T18:20:52.252Z,26.49
2022-08-25T18:24:54.810Z,26.33
2022-08-25T18:28:59.705Z,26.16
2022-08-25T18:33:01.210Z,25.99
2022-08-25T18:37:23.546Z,25.74
2022-08-25T18:41:27.129Z,25.49
2022-08-25T18:45:45.258Z,25.32
2022-08-25T18:49:46.914Z,25.15
2022-08-25T18:53:49.831Z,25.00
2022-08-25T18:57:54.790Z,24.81
2022-08-25T19:01:57.251Z,24.60
2022-08-25T19:05:58.949Z,24.39
2022-08-25T19:10:07.377Z,24.25
2022-08-25T19:14:12.451Z,24.02
2022-08-25T19:18:15.378Z,23.85
2022-08-25T19:22:40.639Z,23.68
2022-08-25T19:26:46.031Z,23.52
2022-08-25T19:30:50.954Z,23.41
2022-08-25T19:34:54.771Z,23.24
2022-08-25T19:39:00.340Z,23.06
2022-08-25T19:43:02.145Z,22.96
2022-08-25T19:47:05.228Z,22.84
2022-08-25T19:51:19.174Z,22.73
2022-08-25T19:55:21.914Z,22.66
2022-08-25T19:59:34.364Z,22.56
2022-08-25T20:03:51.225Z,22.43
2022-08-25T20:07:56.254Z,22.31
2022-08-25T20:11:58.242Z,22.22
2022-08-25T20:16:00.240Z,22.15
2022-08-25T20:20:04.640Z,22.06
2022-08-25T20:24:32.299Z,21.94
2022-08-25T20:28:33.833Z,21.82
2022-08-25T20:32:35.992Z,21.73
2022-08-25T20:36:39.971Z,21.60
2022-08-25T20:40:51.701Z,21.51
2022-08-25T20:44:53.602Z,21.38
2022-08-25T20:48:55.176Z,21.25
2022-08-25T20:52:58.962Z,21.21
2022-08-25T20:57:09.389Z,21.15
2022-08-25T21:01:18.604Z,21.11
2022-08-25T21:05:25.093Z,21.02
2022-08-25T21:09:28.014Z,20.93
2022-08-25T21:13:29.501Z,20.87
2022-08-25T21:17:33.779Z,20.77
2022-08-25T21:21:44.307Z,20.73
2022-08-25T21:25:45.846Z,20.66
2022-08-25T21:29:54.716Z,20.62
2022-08-25T21:34:04.369Z,20.50
2022-08-25T21:38:06.865Z,20.39
2022-08-25T21:42:08.432Z,20.32
2022-08-25T21:46:12.363Z,20.25
2022-08-25T21:50:21.309Z,20.20
2022-08-25T21:54:24.066Z,20.13
2022-08-25T21:58:25.885Z,20.08
2022-08-25T22:02:27.334Z,19.96
2022-08-25T22:06:29.909Z,19.88
2022-08-25T22:10:32.371Z,19.84
2022-08-25T22:14:41.360Z,19.79
2022-08-25T22:18:43.726Z,19.75
2022-08-25T22:22:45.318Z,19.68
2022-08-25T22:26:49.078Z,19.64
2022-08-25T22:30:50.905Z,19.54
2022-08-25T22:34:52.382Z,19.45
2022-08-25T22:39:01.327Z,19.36
2022-08-25T22:43:04.188Z,19.21
2022-08-25T22:47:09.235Z,19.10
2022-08-25T22:51:17.165Z,19.09
2022-08-25T22:55:19.245Z,19.05
2022-08-25T22:59:23.578Z,19.05
2022-08-25T23:03:27.250Z,19.02
2022-08-25T23:07:35.334Z,18.98
2022-08-25T23:11:45.327Z,18.90
2022-08-25T23:15:47.609Z,18.87
2022-08-25T23:19:49.195Z,18.81
2022-08-25T23:23:50.819Z,18.74
2022-08-25T23:27:59.485Z,18.69
2022-08-25T23:36:21.863Z,18.61
2022-08-25T23:40:24.052Z,18.53
2022-08-25T23:44:32.573Z,18.37
2022-08-25T23:48:34.433Z,18.26
2022-08-25T23:52:36.407Z,18.23
2022-08-25T23:56:42.249Z,18.21
